sensor_id;sensor_type;location;lat;lon;timestamp;pressure;altitude;pressure_sealevel;temperature;humidity
13367;BME280;6752;52.612;13.630;2023-04-22T00:01:24;100880.72;;;10.22;80.41
13367;BME280;6752;52.612;13.630;2023-04-22T00:06:27;100878.91;;;10.12;81.01
13367;BME280;6752;52.612;13.630;2023-04-22T00:11:29;100875.66;;;10.13;81.40
13367;BME280;6752;52.612;13.630;2023-04-22T00:16:31;100880.29;;;10.09;81.92
13367;BME280;6752;52.612;13.630;2023-04-22T00:21:34;100869.62;;;10.05;81.62
13367;BME280;6752;52.612;13.630;2023-04-22T00:26:36;100857.91;;;10.00;81.70
13367;BME280;6752;52.612;13.630;2023-04-22T00:31:38;100856.88;;;9.95;82.01
13367;BME280;6752;52.612;13.630;2023-04-22T00:36:41;100853.84;;;9.80;84.69
13367;BME280;6752;52.612;13.630;2023-04-22T00:41:43;100852.09;;;9.54;88.00
13367;BME280;6752;52.612;13.630;2023-04-22T00:46:46;100849.55;;;9.82;84.76
13367;BME280;6752;52.612;13.630;2023-04-22T00:51:48;100841.08;;;9.78;83.74
13367;BME280;6752;52.612;13.630;2023-04-22T00:56:50;100843.30;;;9.72;84.34
13367;BME280;6752;52.612;13.630;2023-04-22T01:01:53;100837.53;;;9.57;85.55
13367;BME280;6752;52.612;13.630;2023-04-22T01:06:55;100841.00;;;9.49;86.63
13367;BME280;6752;52.612;13.630;2023-04-22T01:12:03;100827.15;;;9.80;82.37
13367;BME280;6752;52.612;13.630;2023-04-22T01:17:05;100820.88;;;9.76;81.73
13367;BME280;6752;52.612;13.630;2023-04-22T01:22:07;100819.72;;;9.78;80.92
13367;BME280;6752;52.612;13.630;2023-04-22T01:27:09;100817.52;;;9.81;80.26
13367;BME280;6752;52.612;13.630;2023-04-22T01:32:11;100818.16;;;9.73;80.04
13367;BME280;6752;52.612;13.630;2023-04-22T01:37:14;100810.81;;;9.80;79.66
13367;BME280;6752;52.612;13.630;2023-04-22T01:42:16;100818.05;;;9.64;80.75
13367;BME280;6752;52.612;13.630;2023-04-22T01:47:18;100816.60;;;9.57;81.23
13367;BME280;6752;52.612;13.630;2023-04-22T01:52:20;100811.88;;;9.66;80.82
13367;BME280;6752;52.612;13.630;2023-04-22T01:57:23;100812.52;;;9.58;81.15
13367;BME280;6752;52.612;13.630;2023-04-22T02:02:25;100816.39;;;9.43;82.40
13367;BME280;6752;52.612;13.630;2023-04-22T02:07:28;100803.75;;;9.33;83.49
13367;BME280;6752;52.612;13.630;2023-04-22T02:12:30;100795.17;;;9.29;84.37
13367;BME280;6752;52.612;13.630;2023-04-22T02:17:32;100782.09;;;9.29;85.02
13367;BME280;6752;52.612;13.630;2023-04-22T02:22:35;100791.19;;;9.15;87.37
13367;BME280;6752;52.612;13.630;2023-04-22T02:27:37;100792.97;;;9.05;89.72
13367;BME280;6752;52.612;13.630;2023-04-22T02:32:39;100790.74;;;8.88;91.29
13367;BME280;6752;52.612;13.630;2023-04-22T02:37:41;100785.52;;;8.77;93.35
13367;BME280;6752;52.612;13.630;2023-04-22T02:42:43;100773.98;;;8.72;94.49
13367;BME280;6752;52.612;13.630;2023-04-22T02:47:45;100767.03;;;8.46;97.55
13367;BME280;6752;52.612;13.630;2023-04-22T02:52:48;100762.58;;;8.28;100.00
13367;BME280;6752;52.612;13.630;2023-04-22T02:57:50;100763.46;;;8.36;100.00
13367;BME280;6752;52.612;13.630;2023-04-22T03:02:53;100763.03;;;8.15;100.00
13367;BME280;6752;52.612;13.630;2023-04-22T03:07:55;100760.61;;;8.06;100.00
13367;BME280;6752;52.612;13.630;2023-04-22T03:12:57;100767.14;;;8.00;100.00
13367;BME280;6752;52.612;13.630;2023-04-22T03:18:00;100761.80;;;7.97;100.00
13367;BME280;6752;52.612;13.630;2023-04-22T03:23:02;100765.11;;;8.09;100.00
13367;BME280;6752;52.612;13.630;2023-04-22T03:28:04;100755.80;;;7.81;100.00
13367;BME280;6752;52.612;13.630;2023-04-22T03:33:07;100760.72;;;8.05;100.00
13367;BME280;6752;52.612;13.630;2023-04-22T03:38:09;100757.19;;;7.91;100.00
13367;BME280;6752;52.612;13.630;2023-04-22T03:43:12;100755.42;;;7.73;100.00
13367;BME280;6752;52.612;13.630;2023-04-22T03:48:14;100750.76;;;7.57;100.00
13367;BME280;6752;52.612;13.630;2023-04-22T03:53:16;100753.31;;;7.34;100.00
13367;BME280;6752;52.612;13.630;2023-04-22T03:58:19;100751.87;;;7.38;100.00
13367;BME280;6752;52.612;13.630;2023-04-22T04:03:21;100752.09;;;7.26;100.00
13367;BME280;6752;52.612;13.630;2023-04-22T04:08:23;100752.31;;;7.28;100.00
13367;BME280;6752;52.612;13.630;2023-04-22T04:13:26;100750.97;;;7.14;100.00
13367;BME280;6752;52.612;13.630;2023-04-22T04:18:28;100760.50;;;7.20;100.00
13367;BME280;6752;52.612;13.630;2023-04-22T04:23:30;100751.39;;;7.45;100.00
13367;BME280;6752;52.612;13.630;2023-04-22T04:28:33;100756.25;;;7.56;100.00
13367;BME280;6752;52.612;13.630;2023-04-22T04:33:35;100753.62;;;7.69;100.00
13367;BME280;6752;52.612;13.630;2023-04-22T04:38:38;100757.00;;;7.95;100.00
13367;BME280;6752;52.612;13.630;2023-04-22T04:43:40;100766.48;;;8.13;100.00
13367;BME280;6752;52.612;13.630;2023-04-22T04:48:42;100773.59;;;8.20;100.00
13367;BME280;6752;52.612;13.630;2023-04-22T04:53:45;100765.03;;;8.37;100.00
13367;BME280;6752;52.612;13.630;2023-04-22T04:58:47;100763.27;;;8.47;100.00
13367;BME280;6752;52.612;13.630;2023-04-22T05:03:49;100757.78;;;8.68;100.00
13367;BME280;6752;52.612;13.630;2023-04-22T05:08:51;100760.64;;;8.83;100.00
13367;BME280;6752;52.612;13.630;2023-04-22T05:13:54;100750.94;;;9.01;100.00
13367;BME280;6752;52.612;13.630;2023-04-22T05:18:56;100754.80;;;9.29;100.00
13367;BME280;6752;52.612;13.630;2023-04-22T05:23:58;100751.83;;;9.54;99.30
13367;BME280;6752;52.612;13.630;2023-04-22T05:29:01;100744.45;;;9.74;97.66
13367;BME280;6752;52.612;13.630;2023-04-22T05:34:03;100746.44;;;10.05;95.91
13367;BME280;6752;52.612;13.630;2023-04-22T05:39:05;100750.83;;;10.35;94.73
13367;BME280;6752;52.612;13.630;2023-04-22T05:44:08;100749.06;;;10.70;92.61
13367;BME280;6752;52.612;13.630;2023-04-22T05:49:10;100744.23;;;11.00;89.56
13367;BME280;6752;52.612;13.630;2023-04-22T05:54:13;100751.96;;;11.41;86.42
13367;BME280;6752;52.612;13.630;2023-04-22T05:59:15;100742.61;;;11.82;85.30
13367;BME280;6752;52.612;13.630;2023-04-22T06:04:17;100748.86;;;12.23;84.40
13367;BME280;6752;52.612;13.630;2023-04-22T06:09:20;100744.06;;;12.27;80.04
13367;BME280;6752;52.612;13.630;2023-04-22T06:14:22;100738.46;;;12.52;79.00
13367;BME280;6752;52.612;13.630;2023-04-22T06:19:25;100732.14;;;13.29;78.55
13367;BME280;6752;52.612;13.630;2023-04-22T06:24:27;100733.66;;;13.19;74.07
13367;BME280;6752;52.612;13.630;2023-04-22T06:29:29;100735.88;;;13.31;74.20
13367;BME280;6752;52.612;13.630;2023-04-22T06:34:32;100740.41;;;13.55;72.35
13367;BME280;6752;52.612;13.630;2023-04-22T06:39:34;100746.58;;;14.40;71.69
13367;BME280;6752;52.612;13.630;2023-04-22T06:44:36;100739.59;;;14.44;67.30
13367;BME280;6752;52.612;13.630;2023-04-22T06:49:38;100740.59;;;14.20;66.08
13367;BME280;6752;52.612;13.630;2023-04-22T06:54:40;100733.62;;;14.86;66.31
13367;BME280;6752;52.612;13.630;2023-04-22T06:59:42;100725.80;;;14.93;63.92
13367;BME280;6752;52.612;13.630;2023-04-22T07:04:45;100731.17;;;14.87;62.46
13367;BME280;6752;52.612;13.630;2023-04-22T07:09:47;100734.20;;;15.19;63.24
13367;BME280;6752;52.612;13.630;2023-04-22T07:14:49;100728.02;;;15.18;62.41
13367;BME280;6752;52.612;13.630;2023-04-22T07:19:52;100726.73;;;15.34;61.46
13367;BME280;6752;52.612;13.630;2023-04-22T07:24:54;100717.88;;;15.74;60.42
13367;BME280;6752;52.612;13.630;2023-04-22T07:29:56;100715.48;;;16.10;58.56
13367;BME280;6752;52.612;13.630;2023-04-22T07:34:58;100722.15;;;16.31;58.58
13367;BME280;6752;52.612;13.630;2023-04-22T07:40:01;100722.79;;;15.92;58.42
13367;BME280;6752;52.612;13.630;2023-04-22T07:45:03;100722.54;;;15.85;58.94
13367;BME280;6752;52.612;13.630;2023-04-22T07:50:06;100708.59;;;17.37;59.23
13367;BME280;6752;52.612;13.630;2023-04-22T07:55:08;100708.45;;;17.59;57.38
13367;BME280;6752;52.612;13.630;2023-04-22T08:00:11;100697.18;;;17.42;56.92
13367;BME280;6752;52.612;13.630;2023-04-22T08:05:13;100695.63;;;17.56;56.33
13367;BME280;6752;52.612;13.630;2023-04-22T08:10:15;100687.47;;;18.00;54.96
13367;BME280;6752;52.612;13.630;2023-04-22T08:15:18;100688.44;;;18.46;56.78
13367;BME280;6752;52.612;13.630;2023-04-22T08:20:20;100676.50;;;19.02;55.43
13367;BME280;6752;52.612;13.630;2023-04-22T08:25:22;100676.36;;;19.18;54.00
13367;BME280;6752;52.612;13.630;2023-04-22T08:30:25;100680.64;;;18.69;53.57
13367;BME280;6752;52.612;13.630;2023-04-22T08:35:27;100674.28;;;19.07;52.80
13367;BME280;6752;52.612;13.630;2023-04-22T08:40:29;100669.84;;;20.46;52.22
13367;BME280;6752;52.612;13.630;2023-04-22T08:45:32;100666.93;;;21.00;49.70
13367;BME280;6752;52.612;13.630;2023-04-22T08:50:35;100664.07;;;20.62;49.22
13367;BME280;6752;52.612;13.630;2023-04-22T08:55:37;100674.06;;;20.28;50.71
13367;BME280;6752;52.612;13.630;2023-04-22T09:00:41;100664.23;;;20.76;48.05
13367;BME280;6752;52.612;13.630;2023-04-22T09:05:41;100667.14;;;20.55;47.11
13367;BME280;6752;52.612;13.630;2023-04-22T09:10:44;100657.58;;;21.23;48.55
13367;BME280;6752;52.612;13.630;2023-04-22T09:15:46;100653.66;;;21.29;46.96
13367;BME280;6752;52.612;13.630;2023-04-22T09:20:48;100644.69;;;22.39;47.35
13367;BME280;6752;52.612;13.630;2023-04-22T09:25:51;100644.21;;;22.54;48.45
13367;BME280;6752;52.612;13.630;2023-04-22T09:30:53;100636.53;;;21.63;45.89
13367;BME280;6752;52.612;13.630;2023-04-22T09:35:55;100639.27;;;22.67;48.17
13367;BME280;6752;52.612;13.630;2023-04-22T09:40:58;100618.22;;;22.28;44.54
13367;BME280;6752;52.612;13.630;2023-04-22T09:46:00;100625.59;;;22.70;46.32
13367;BME280;6752;52.612;13.630;2023-04-22T09:51:04;100615.03;;;21.85;45.89
13367;BME280;6752;52.612;13.630;2023-04-22T09:56:05;100602.74;;;22.50;45.26
13367;BME280;6752;52.612;13.630;2023-04-22T10:01:07;100596.53;;;23.21;44.11
13367;BME280;6752;52.612;13.630;2023-04-22T10:06:10;100586.30;;;24.30;45.19
13367;BME280;6752;52.612;13.630;2023-04-22T10:11:12;100586.48;;;25.08;44.96
13367;BME280;6752;52.612;13.630;2023-04-22T10:16:14;100573.92;;;24.05;42.50
13367;BME280;6752;52.612;13.630;2023-04-22T10:21:17;100560.55;;;23.48;40.75
13367;BME280;6752;52.612;13.630;2023-04-22T10:26:38;100555.85;;;24.34;40.81
13367;BME280;6752;52.612;13.630;2023-04-22T10:31:40;100558.36;;;24.04;41.45
13367;BME280;6752;52.612;13.630;2023-04-22T10:36:55;100541.81;;;23.92;40.19
13367;BME280;6752;52.612;13.630;2023-04-22T10:42:07;100541.89;;;24.90;40.06
13367;BME280;6752;52.612;13.630;2023-04-22T10:46:59;100526.86;;;24.69;39.55
13367;BME280;6752;52.612;13.630;2023-04-22T10:52:01;100527.97;;;25.25;39.58
13367;BME280;6752;52.612;13.630;2023-04-22T10:57:06;100521.31;;;24.10;38.55
13367;BME280;6752;52.612;13.630;2023-04-22T11:02:10;100515.06;;;25.71;42.87
13367;BME280;6752;52.612;13.630;2023-04-22T11:07:14;100511.91;;;23.38;38.82
13367;BME280;6752;52.612;13.630;2023-04-22T11:17:41;100498.19;;;23.87;38.03
13367;BME280;6752;52.612;13.630;2023-04-22T11:22:42;100498.92;;;25.79;39.19
13367;BME280;6752;52.612;13.630;2023-04-22T11:27:44;100488.73;;;23.99;38.41
13367;BME280;6752;52.612;13.630;2023-04-22T11:32:47;100489.39;;;24.01;36.50
13367;BME280;6752;52.612;13.630;2023-04-22T11:37:52;100495.34;;;23.12;36.81
13367;BME280;6752;52.612;13.630;2023-04-22T11:42:53;100481.27;;;24.64;37.54
13367;BME280;6752;52.612;13.630;2023-04-22T11:47:55;100479.45;;;23.68;37.18
13367;BME280;6752;52.612;13.630;2023-04-22T11:52:58;100482.59;;;23.71;36.93
13367;BME280;6752;52.612;13.630;2023-04-22T11:58:12;100471.30;;;23.65;36.86
13367;BME280;6752;52.612;13.630;2023-04-22T12:03:17;100468.52;;;23.83;37.66
13367;BME280;6752;52.612;13.630;2023-04-22T12:08:19;100461.94;;;23.61;36.63
13367;BME280;6752;52.612;13.630;2023-04-22T12:13:21;100460.01;;;23.90;35.72
13367;BME280;6752;52.612;13.630;2023-04-22T12:18:32;100445.52;;;25.30;36.35
13367;BME280;6752;52.612;13.630;2023-04-22T12:23:47;100453.97;;;23.75;36.10
13367;BME280;6752;52.612;13.630;2023-04-22T12:28:49;100440.33;;;25.09;36.49
13367;BME280;6752;52.612;13.630;2023-04-22T12:33:52;100441.97;;;23.99;36.19
13367;BME280;6752;52.612;13.630;2023-04-22T12:38:54;100438.55;;;24.02;35.21
13367;BME280;6752;52.612;13.630;2023-04-22T12:43:56;100435.75;;;24.13;36.89
13367;BME280;6752;52.612;13.630;2023-04-22T12:48:59;100426.69;;;24.03;34.75
13367;BME280;6752;52.612;13.630;2023-04-22T12:54:01;100423.88;;;24.48;37.23
13367;BME280;6752;52.612;13.630;2023-04-22T12:59:03;100415.55;;;24.92;36.52
13367;BME280;6752;52.612;13.630;2023-04-22T13:04:06;100419.01;;;24.38;39.08
13367;BME280;6752;52.612;13.630;2023-04-22T13:09:08;100414.33;;;25.11;39.46
13367;BME280;6752;52.612;13.630;2023-04-22T13:14:10;100407.59;;;23.77;36.09
13367;BME280;6752;52.612;13.630;2023-04-22T13:19:12;100388.73;;;24.49;34.30
13367;BME280;6752;52.612;13.630;2023-04-22T13:24:14;100391.84;;;24.21;34.58
13367;BME280;6752;52.612;13.630;2023-04-22T13:29:17;100390.90;;;25.51;34.25
13367;BME280;6752;52.612;13.630;2023-04-22T13:34:19;100387.41;;;24.87;35.63
13367;BME280;6752;52.612;13.630;2023-04-22T13:39:23;100382.05;;;24.79;35.28
13367;BME280;6752;52.612;13.630;2023-04-22T13:44:24;100366.99;;;24.02;34.65
13367;BME280;6752;52.612;13.630;2023-04-22T13:49:26;100359.48;;;24.08;34.43
13367;BME280;6752;52.612;13.630;2023-04-22T13:54:29;100358.57;;;24.05;34.76
13367;BME280;6752;52.612;13.630;2023-04-22T13:59:33;100367.67;;;24.08;34.73
13367;BME280;6752;52.612;13.630;2023-04-22T14:04:33;100357.57;;;24.01;34.96
13367;BME280;6752;52.612;13.630;2023-04-22T14:09:36;100351.11;;;24.61;35.78
13367;BME280;6752;52.612;13.630;2023-04-22T14:14:38;100350.72;;;23.58;36.33
13367;BME280;6752;52.612;13.630;2023-04-22T14:19:40;100339.05;;;23.85;33.93
13367;BME280;6752;52.612;13.630;2023-04-22T14:24:43;100332.38;;;24.22;36.86
13367;BME280;6752;52.612;13.630;2023-04-22T14:29:45;100326.67;;;23.84;37.54
13367;BME280;6752;52.612;13.630;2023-04-22T14:34:48;100326.62;;;24.02;37.85
13367;BME280;6752;52.612;13.630;2023-04-22T14:39:50;100322.58;;;23.94;37.78
13367;BME280;6752;52.612;13.630;2023-04-22T14:44:52;100312.05;;;24.32;37.49
13367;BME280;6752;52.612;13.630;2023-04-22T14:49:55;100303.21;;;23.54;37.38
13367;BME280;6752;52.612;13.630;2023-04-22T14:54:57;100299.33;;;23.67;38.14
13367;BME280;6752;52.612;13.630;2023-04-22T15:00:00;100295.92;;;24.16;38.36
13367;BME280;6752;52.612;13.630;2023-04-22T15:05:03;100301.98;;;23.72;36.51
13367;BME280;6752;52.612;13.630;2023-04-22T15:10:05;100291.73;;;23.58;37.74
13367;BME280;6752;52.612;13.630;2023-04-22T15:15:07;100283.43;;;23.22;35.51
13367;BME280;6752;52.612;13.630;2023-04-22T15:20:11;100283.14;;;23.51;38.59
13367;BME280;6752;52.612;13.630;2023-04-22T15:25:12;100277.69;;;23.75;37.69
13367;BME280;6752;52.612;13.630;2023-04-22T15:30:15;100273.09;;;23.52;37.41
13367;BME280;6752;52.612;13.630;2023-04-22T15:35:17;100267.25;;;23.24;37.43
13367;BME280;6752;52.612;13.630;2023-04-22T15:40:19;100272.57;;;23.84;39.71
13367;BME280;6752;52.612;13.630;2023-04-22T15:45:22;100266.35;;;23.38;40.30
13367;BME280;6752;52.612;13.630;2023-04-22T15:50:24;100268.81;;;23.39;39.69
13367;BME280;6752;52.612;13.630;2023-04-22T15:55:26;100263.36;;;23.30;37.52
13367;BME280;6752;52.612;13.630;2023-04-22T16:00:28;100263.00;;;23.56;40.72
13367;BME280;6752;52.612;13.630;2023-04-22T16:05:30;100255.00;;;23.41;39.82
13367;BME280;6752;52.612;13.630;2023-04-22T16:10:33;100241.98;;;23.57;38.81
13367;BME280;6752;52.612;13.630;2023-04-22T16:15:35;100249.97;;;23.21;39.22
13367;BME280;6752;52.612;13.630;2023-04-22T16:20:38;100234.31;;;23.07;38.97
13367;BME280;6752;52.612;13.630;2023-04-22T16:25:39;100230.97;;;23.07;40.69
13367;BME280;6752;52.612;13.630;2023-04-22T16:30:41;100232.06;;;22.70;41.51
13367;BME280;6752;52.612;13.630;2023-04-22T16:35:43;100216.34;;;22.41;40.48
13367;BME280;6752;52.612;13.630;2023-04-22T16:40:46;100216.70;;;22.43;40.38
13367;BME280;6752;52.612;13.630;2023-04-22T16:45:48;100211.08;;;22.46;40.00
13367;BME280;6752;52.612;13.630;2023-04-22T16:50:51;100205.45;;;22.23;40.22
13367;BME280;6752;52.612;13.630;2023-04-22T16:55:53;100204.68;;;21.79;39.93
13367;BME280;6752;52.612;13.630;2023-04-22T17:00:55;100200.19;;;21.44;40.08
13367;BME280;6752;52.612;13.630;2023-04-22T17:05:58;100196.48;;;21.25;40.40
13367;BME280;6752;52.612;13.630;2023-04-22T17:11:00;100197.98;;;21.27;40.63
13367;BME280;6752;52.612;13.630;2023-04-22T17:16:02;100206.33;;;21.08;40.99
13367;BME280;6752;52.612;13.630;2023-04-22T17:21:05;100202.42;;;20.84;41.28
13367;BME280;6752;52.612;13.630;2023-04-22T17:26:07;100206.83;;;20.75;41.83
13367;BME280;6752;52.612;13.630;2023-04-22T17:31:09;100203.58;;;20.40;42.86
13367;BME280;6752;52.612;13.630;2023-04-22T17:36:12;100200.99;;;20.36;43.15
13367;BME280;6752;52.612;13.630;2023-04-22T17:41:13;100208.98;;;20.05;43.38
13367;BME280;6752;52.612;13.630;2023-04-22T17:46:15;100213.58;;;19.67;44.71
13367;BME280;6752;52.612;13.630;2023-04-22T17:51:17;100206.49;;;19.70;44.93
13367;BME280;6752;52.612;13.630;2023-04-22T17:56:19;100208.95;;;19.84;45.73
13367;BME280;6752;52.612;13.630;2023-04-22T18:01:21;100211.95;;;19.46;46.86
13367;BME280;6752;52.612;13.630;2023-04-22T18:06:23;100215.14;;;19.29;50.59
13367;BME280;6752;52.612;13.630;2023-04-22T18:11:26;100221.02;;;19.03;51.19
13367;BME280;6752;52.612;13.630;2023-04-22T18:16:28;100215.38;;;18.55;52.13
13367;BME280;6752;52.612;13.630;2023-04-22T18:21:30;100233.30;;;18.30;52.39
13367;BME280;6752;52.612;13.630;2023-04-22T18:26:33;100227.30;;;17.53;52.90
13367;BME280;6752;52.612;13.630;2023-04-22T18:31:35;100236.65;;;17.46;53.29
13367;BME280;6752;52.612;13.630;2023-04-22T18:36:37;100229.63;;;17.45;52.98
13367;BME280;6752;52.612;13.630;2023-04-22T18:41:40;100222.75;;;17.55;53.70
13367;BME280;6752;52.612;13.630;2023-04-22T18:46:42;100233.64;;;17.17;53.30
13367;BME280;6752;52.612;13.630;2023-04-22T18:51:44;100238.19;;;17.10;53.84
13367;BME280;6752;52.612;13.630;2023-04-22T18:56:47;100238.71;;;16.99;54.28
13367;BME280;6752;52.612;13.630;2023-04-22T19:01:49;100237.47;;;16.81;54.27
13367;BME280;6752;52.612;13.630;2023-04-22T19:06:52;100241.11;;;16.63;54.55
13367;BME280;6752;52.612;13.630;2023-04-22T19:11:54;100237.91;;;16.52;54.59
13367;BME280;6752;52.612;13.630;2023-04-22T19:16:56;100238.50;;;16.28;56.86
13367;BME280;6752;52.612;13.630;2023-04-22T19:21:59;100241.50;;;16.19;56.89
13367;BME280;6752;52.612;13.630;2023-04-22T19:27:01;100238.23;;;15.96;57.09
13367;BME280;6752;52.612;13.630;2023-04-22T19:32:04;100234.05;;;16.09;56.33
13367;BME280;6752;52.612;13.630;2023-04-22T19:37:06;100233.17;;;15.78;57.33
13367;BME280;6752;52.612;13.630;2023-04-22T19:42:08;100224.47;;;15.91;56.09
13367;BME280;6752;52.612;13.630;2023-04-22T19:47:11;100218.09;;;15.83;56.73
13367;BME280;6752;52.612;13.630;2023-04-22T19:52:13;100214.11;;;15.85;55.62
13367;BME280;6752;52.612;13.630;2023-04-22T19:57:15;100212.32;;;15.61;56.41
13367;BME280;6752;52.612;13.630;2023-04-22T20:02:18;100213.37;;;15.57;56.56
13367;BME280;6752;52.612;13.630;2023-04-22T20:07:20;100196.06;;;15.35;57.13
13367;BME280;6752;52.612;13.630;2023-04-22T20:12:22;100194.88;;;15.40;57.48
13367;BME280;6752;52.612;13.630;2023-04-22T20:17:25;100194.00;;;15.37;57.24
13367;BME280;6752;52.612;13.630;2023-04-22T20:22:27;100191.62;;;15.11;58.67
13367;BME280;6752;52.612;13.630;2023-04-22T20:27:33;100184.05;;;15.07;58.67
13367;BME280;6752;52.612;13.630;2023-04-22T20:32:34;100187.77;;;14.77;60.63
13367;BME280;6752;52.612;13.630;2023-04-22T20:37:37;100178.73;;;14.66;61.35
13367;BME280;6752;52.612;13.630;2023-04-22T20:42:39;100180.20;;;14.60;61.30
13367;BME280;6752;52.612;13.630;2023-04-22T20:47:41;100184.50;;;14.42;62.13
13367;BME280;6752;52.612;13.630;2023-04-22T20:52:44;100176.72;;;14.32;63.28
13367;BME280;6752;52.612;13.630;2023-04-22T20:57:46;100173.05;;;13.88;65.62
13367;BME280;6752;52.612;13.630;2023-04-22T21:02:48;100168.20;;;13.95;66.14
13367;BME280;6752;52.612;13.630;2023-04-22T21:07:51;100161.88;;;13.81;67.02
13367;BME280;6752;52.612;13.630;2023-04-22T21:12:52;100159.31;;;13.72;67.65
13367;BME280;6752;52.612;13.630;2023-04-22T21:17:55;100154.53;;;13.74;67.83
13367;BME280;6752;52.612;13.630;2023-04-22T21:22:57;100151.99;;;13.70;68.13
13367;BME280;6752;52.612;13.630;2023-04-22T21:27:59;100157.31;;;13.67;68.05
13367;BME280;6752;52.612;13.630;2023-04-22T21:33:02;100156.27;;;13.49;70.10
13367;BME280;6752;52.612;13.630;2023-04-22T21:38:04;100152.53;;;13.28;72.31
13367;BME280;6752;52.612;13.630;2023-04-22T21:43:06;100147.47;;;13.28;72.97
13367;BME280;6752;52.612;13.630;2023-04-22T21:48:08;100150.34;;;13.27;72.93
13367;BME280;6752;52.612;13.630;2023-04-22T21:53:11;100147.72;;;13.18;73.95
13367;BME280;6752;52.612;13.630;2023-04-22T21:58:13;100143.55;;;13.24;74.02
13367;BME280;6752;52.612;13.630;2023-04-22T22:03:15;100140.36;;;13.13;75.20
13367;BME280;6752;52.612;13.630;2023-04-22T22:08:18;100142.95;;;13.19;75.02
13367;BME280;6752;52.612;13.630;2023-04-22T22:13:20;100139.32;;;13.25;74.46
13367;BME280;6752;52.612;13.630;2023-04-22T22:18:22;100135.56;;;13.20;75.71
13367;BME280;6752;52.612;13.630;2023-04-22T22:23:25;100137.46;;;13.11;77.42
13367;BME280;6752;52.612;13.630;2023-04-22T22:28:27;100130.53;;;13.23;77.71
13367;BME280;6752;52.612;13.630;2023-04-22T22:33:30;100129.45;;;13.15;78.16
13367;BME280;6752;52.612;13.630;2023-04-22T22:38:32;100123.76;;;13.25;76.97
13367;BME280;6752;52.612;13.630;2023-04-22T22:43:34;100118.95;;;13.46;74.61
13367;BME280;6752;52.612;13.630;2023-04-22T22:48:37;100120.88;;;13.67;71.89
13367;BME280;6752;52.612;13.630;2023-04-22T22:53:39;100117.83;;;13.64;72.42
13367;BME280;6752;52.612;13.630;2023-04-22T22:58:41;100119.37;;;13.46;75.29
13367;BME280;6752;52.612;13.630;2023-04-22T23:03:44;100118.52;;;13.32;76.80
13367;BME280;6752;52.612;13.630;2023-04-22T23:08:46;100108.23;;;13.42;76.66
13367;BME280;6752;52.612;13.630;2023-04-22T23:13:49;100108.99;;;13.48;75.01
13367;BME280;6752;52.612;13.630;2023-04-22T23:18:51;100097.81;;;13.50;74.70
13367;BME280;6752;52.612;13.630;2023-04-22T23:23:53;100099.38;;;13.54;73.57
13367;BME280;6752;52.612;13.630;2023-04-22T23:28:56;100092.38;;;13.25;76.54
13367;BME280;6752;52.612;13.630;2023-04-22T23:34:02;100091.30;;;13.06;78.65
13367;BME280;6752;52.612;13.630;2023-04-22T23:39:03;100082.00;;;13.07;78.47
13367;BME280;6752;52.612;13.630;2023-04-22T23:44:06;100081.45;;;12.72;81.10
13367;BME280;6752;52.612;13.630;2023-04-22T23:49:08;100078.88;;;12.73;81.71
13367;BME280;6752;52.612;13.630;2023-04-22T23:54:10;100067.00;;;12.65;83.49
13367;BME280;6752;52.612;13.630;2023-04-22T23:59:13;100066.22;;;12.42;85.65
